• Join FlightAware (Why Join?)
  • Login
  • US Flag 
10:26AM EST


 

Airport Tracker/Info


-or-


 

Live Flight TrackerFlight Track Log ✈ N354LQ ✈ 06-Feb-2014 ✈ KAPA - KVNY

Flight Track Log - Related Links

Times and Time Zones

All times are in EST time to prevent confusion due to time zone crossing. See the N354LQ flight status page for this flight to view local times or setup timezone preferences in your user account.

Time Position Orientation Groundspeed Altitude Reporting Facility
EST Latitude Longitude Course Direction KTS MPH feet Rate Location/Type
12:51AM 39.5619 -105.0197 305° West 248 285 12,800  Level Denver Center
12:52AM 39.5864 -105.1017 291° West 250 288 16,500 3,420 Climbing Denver Center
12:53AM 39.6036 -105.1831 285° West 238 274 19,800 2,280 Climbing Denver Center
12:54AM 39.6194 -105.2636 284° West 264 304 21,100 1,560 Climbing Denver Center
12:55AM 39.7500 -105.1150 270° West  Level FlightAware Approximate
12:55AM 39.6411 -105.3711 285° West 297 342 23,000  Level Denver Center
12:56AM 39.6678 -105.5117 284° West 330 380 25,500 2,040 Climbing Denver Center
12:57AM 39.6928 -105.6325 285° West 343 395 27,200 1,740 Climbing Denver Center
12:58AM 39.6772 -105.7578 261° West 355 409 29,100 1,740 Climbing Denver Center
12:59AM 39.6553 -105.8786 257° West 347 399 31,200 1,560 Climbing Denver Center
01:00AM 39.6250 -106.0228 255° West 347 399 32,600 840 Climbing Denver Center
01:02AM 39.5736 -106.2697 255° West 377 434 33,800 660 Climbing Denver Center
01:03AM 39.5450 -106.4031 254° West 383 441 34,700 840 Climbing Denver Center
01:04AM 39.5158 -106.5392 255° West 376 433 35,600 780 Climbing Denver Center
01:05AM 39.4856 -106.6814 255° West 370 426 36,300 540 Climbing Denver Center
01:06AM 39.4575 -106.8075 254° West 377 434 36,700 420 Climbing Denver Center
01:07AM 39.4294 -106.9333 254° West 380 437 37,200 480 Climbing Denver Center
01:08AM 39.3650 -107.0633 237° Southwest 381 438 37,700 360 Climbing Denver Center
01:09AM 39.3203 -107.1792 244° Southwest 377 434 38,000 120 Climbing Denver Center
01:10AM 39.2700 -107.2936 240° Southwest 379 436 38,000  Level Denver Center
01:11AM 39.2144 -107.4272 242° Southwest 378 435 38,000  Level Denver Center
01:12AM 39.1656 -107.5406 241° Southwest 377 434 38,000  Level Denver Center
01:13AM 39.1181 -107.6542 242° Southwest 377 434 38,000  Level Denver Center
01:14AM 39.0625 -107.7825 241° Southwest 370 426 38,000  Level Denver Center
01:15AM 39.0133 -107.8953 241° Southwest 374 430 38,000  Level Denver Center
01:16AM 38.9675 -108.0067 242° Southwest 370 426 38,000  Level Denver Center
01:17AM 38.9200 -108.1164 241° Southwest 367 422 38,000  Level Denver Center
01:18AM 38.8644 -108.2433 241° Southwest 365 420 38,000  Level Denver Center
01:19AM 38.8175 -108.3531 241° Southwest 366 421 38,000  Level Denver Center
01:20AM 38.7692 -108.4636 241° Southwest 369 425 38,100  Climbing Denver Center
01:21AM 38.7119 -108.5908 240° Southwest 369 425 38,000 -60 Descending Denver Center
01:22AM 38.6639 -108.7028 241° Southwest 372 428 38,000  Level Denver Center
01:23AM 38.6147 -108.8142 241° Southwest 374 430 38,000  Level Denver Center
01:24AM 38.5639 -108.9228 239° Southwest 372 428 38,000  Level Denver Center
01:25AM 38.5078 -109.0528 241° Southwest 372 428 38,000  Level Denver Center
01:26AM 38.4575 -109.1633 240° Southwest 375 432 38,000  Level Denver Center
01:27AM 38.4089 -109.2753 241° Southwest 376 433 38,100  Climbing Denver Center
01:28AM 38.3497 -109.4058 240° Southwest 380 437 38,000 -60 Descending Denver Center
01:29AM 38.2994 -109.5169 240° Southwest 380 437 38,000  Level Denver Center
01:30AM 38.2489 -109.6275 240° Southwest 377 434 38,000  Level Denver Center
01:31AM 38.1883 -109.7575 239° Southwest 382 440 38,000  Level Denver Center
01:32AM 38.1364 -109.8703 240° Southwest 384 442 38,000  Level Denver Center
01:33AM 38.0850 -109.9836 240° Southwest 387 445 38,000  Level Denver Center
01:34AM 38.0328 -110.0961 240° Southwest 386 444 38,000  Level Denver Center
01:35AM 37.9736 -110.2272 240° Southwest 384 442 38,000  Level Denver Center
01:42AM 37.5756 -111.0761 238° Southwest 393 452 38,000  Level Denver Center
01:43AM 37.5175 -111.1928 238° Southwest 393 452 38,000  Level Denver Center
01:44AM 37.5299 -111.1582 239° Southwest  Level FlightAware Approximate
01:44AM 37.4622 -111.3106 239° Southwest 391 450 38,000  Level Denver Center
01:45AM 37.4745 -111.2727 239° Southwest  Level FlightAware Approximate
01:45AM 37.4061 -111.4294 239° Southwest 394 453 38,000  Level Denver Center
01:46AM 37.4190 -111.3869 239° Southwest  Level FlightAware Approximate
01:46AM 37.3486 -111.5464 238° Southwest 395 455 38,000  Level Denver Center
01:47AM 37.3634 -111.5010 238° Southwest  Level FlightAware Approximate
01:47AM 37.2933 -111.6636 239° Southwest 391 450 38,000  Level Denver Center
01:48AM 37.3077 -111.6149 238° Southwest  Level FlightAware Approximate
01:48AM 37.2367 -111.7808 239° Southwest 392 451 38,000  Level Denver Center
01:49AM 37.1778 -111.8975 238° Southwest 394 453 38,000  Level Denver Center
01:50AM 37.1233 -112.0156 240° Southwest 393 452 38,000  Level Denver Center
01:51AM 37.0644 -112.1322 238° Southwest 393 452 38,000  Level Denver Center
01:53AM 37.0053 -112.2522 238° Southwest 399 459 38,000  Level Denver Center
01:54AM 36.9342 -112.3972 239° Southwest 401 461 38,000  Level Los Angeles Center
01:55AM 36.8744 -112.5167 238° Southwest 403 464 38,000  Level Los Angeles Center
01:56AM 36.8161 -112.6358 239° Southwest 402 463 38,000  Level Los Angeles Center
01:57AM 36.7569 -112.7531 238° Southwest 400 460 38,000  Level Los Angeles Center
01:58AM 36.6856 -112.8925 237° Southwest 399 459 38,000  Level Los Angeles Center
01:59AM 36.6147 -113.0325 238° Southwest 399 459 38,000  Level Los Angeles Center
02:00AM 36.5528 -113.1492 237° Southwest 402 463 38,000  Level Los Angeles Center
02:01AM 36.4911 -113.2672 237° Southwest 404 465 38,000  Level Los Angeles Center
02:02AM 36.4281 -113.3839 236° Southwest 407 468 38,000  Level Los Angeles Center
02:03AM 36.3656 -113.5008 236° Southwest 406 467 38,000  Level Los Angeles Center
02:04AM 36.3036 -113.6194 237° Southwest 408 470 38,000  Level Los Angeles Center
02:05AM 36.2419 -113.7356 237° Southwest 404 465 38,000  Level Los Angeles Center
02:06AM 36.1775 -113.8531 236° Southwest 408 470 38,000  Level Los Angeles Center
02:07AM 36.1161 -113.9697 237° Southwest 406 467 38,000  Level Los Angeles Center
02:08AM 36.0536 -114.0858 236° Southwest 406 467 38,000  Level Los Angeles Center
02:09AM 35.9917 -114.2036 237° Southwest 407 468 38,000  Level Los Angeles Center
02:10AM 35.9292 -114.3197 236° Southwest 406 467 38,000  Level Los Angeles Center
02:11AM 35.8675 -114.4353 237° Southwest 404 465 38,000  Level Los Angeles Center
02:12AM 35.8064 -114.5506 237° Southwest 401 461 38,000  Level Los Angeles Center
02:13AM 35.7319 -114.6883 236° Southwest 401 461 38,000  Level Los Angeles Center
02:14AM 35.6572 -114.8269 236° Southwest 404 465 38,000  Level Los Angeles Center
02:15AM 35.5953 -114.9428 237° Southwest 404 465 38,000  Level Los Angeles Center
02:16AM 35.5344 -115.0592 237° Southwest 404 465 38,000  Level Los Angeles Center
02:18AM 35.4728 -115.1753 237° Southwest 404 465 38,000  Level Los Angeles Center
02:19AM 35.4097 -115.2889 236° Southwest 403 464 38,000  Level Los Angeles Center
02:20AM 35.3450 -115.4014 235° Southwest 402 463 38,000  Level Los Angeles Center
02:21AM 35.2792 -115.5150 235° Southwest 405 466 38,000  Level Los Angeles Center
02:22AM 35.2161 -115.6300 236° Southwest 411 473 38,000 -180 Level Los Angeles Center
02:24AM 35.0850 -115.8603 235° Southwest 412 474 37,600 -600 Descending Los Angeles Center
02:25AM 35.0169 -115.9778 235° Southwest 420 483 36,200 -1,380 Descending Los Angeles Center
02:26AM 34.9567 -116.0958 238° Southwest 415 478 34,900 -1,680 Descending Los Angeles Center
02:27AM 34.9000 -116.2169 240° Southwest 411 473 32,900 -2,100 Descending Los Angeles Center
02:28AM 34.8467 -116.3461 243° Southwest 420 483 30,700 -2,160 Descending Los Angeles Center
02:29AM 34.7983 -116.4756 246° West 422 486 28,600 -2,340 Descending Los Angeles Center
02:30AM 34.7658 -116.6069 253° West 403 464 26,000 -2,220 Descending Los Angeles Center
02:31AM 34.7669 -116.7328 271° West 376 433 24,200 -1,080 Descending Los Angeles Center
02:32AM 34.7550 -116.8497 263° West 352 405 23,900 -120 Descending Los Angeles Center
02:33AM 34.7425 -116.9692 263° West 356 410 24,000  Climbing Los Angeles Center
02:34AM 34.7308 -117.0944 264° West 370 426 24,000  Level Los Angeles Center
02:35AM 34.7186 -117.2225 263° West 380 437 24,000 -360 Level Los Angeles Center
02:36AM 34.7078 -117.3494 264° West 378 435 23,300 -2,340 Descending Los Angeles Center
02:38AM 34.6789 -117.5942 262° West 365 420 17,100 -3,060 Descending Los Angeles Center
02:39AM 34.6628 -117.7144 261° West 362 417 14,100 -1,320 Descending Los Angeles Center
02:45AM 34.5833 -118.2833 158° South 256 295 8,000 -900 Descending Southern California TRACON
02:46AM 34.5667 -118.3667 256° West 257 296 8,000 -180 Level Southern California TRACON
02:47AM 34.5333 -118.4500 244° Southwest 245 282 7,700 -780 Descending Southern California TRACON
02:48AM 34.3240 -118.5203 158° South  Level FlightAware Approximate
02:48AM 34.4833 -118.4833 209° Southwest 246 283 6,600  Level Southern California TRACON
02:49AM 34.2218 -118.4859 158° South  Level FlightAware Approximate
02:49AM 34.4333 -118.5000 195° South 235 270 5,500  Level Southern California TRACON
02:50AM 34.3833 -118.5000 180° South 176 203 5,000 -720 Descending Southern California TRACON
02:51AM 34.3333 -118.5000 180° South 137 158 4,100 -1,080 Descending Southern California TRACON
02:51AM 34.3000 -118.5000 180° South 137 158 3,100 -1,080 Descending Southern California TRACON
02:52AM 34.2667 -118.5000 180° South 138 159 2,200 -900 Descending Southern California TRACON
02:54AM 34.2098 -118.4900 180° South  Level Estimated
03:01AM 34.2098 -118.4900 180° South  Level Estimated
03:02AM 34.2098 -118.4900 180° South  Level Estimated